sensor_id;sensor_type;location;lat;lon;timestamp;P1;durP1;ratioP1;P2;durP2;ratioP2
62572;SDS011;48626;51.678;5.806;2023-03-12T00:00:00;8.50;;;3.35;;
62572;SDS011;48626;51.678;5.806;2023-03-12T00:02:28;7.43;;;4.18;;
62572;SDS011;48626;51.678;5.806;2023-03-12T00:04:54;7.30;;;3.90;;
62572;SDS011;48626;51.678;5.806;2023-03-12T00:07:20;7.53;;;3.90;;
62572;SDS011;48626;51.678;5.806;2023-03-12T00:09:45;6.60;;;3.65;;
62572;SDS011;48626;51.678;5.806;2023-03-12T00:12:11;7.32;;;3.67;;
62572;SDS011;48626;51.678;5.806;2023-03-12T00:14:37;9.55;;;3.35;;
62572;SDS011;48626;51.678;5.806;2023-03-12T00:17:02;7.88;;;3.40;;
62572;SDS011;48626;51.678;5.806;2023-03-12T00:19:28;8.82;;;3.67;;
62572;SDS011;48626;51.678;5.806;2023-03-12T00:21:54;9.60;;;3.20;;
62572;SDS011;48626;51.678;5.806;2023-03-12T00:24:19;6.53;;;3.30;;
62572;SDS011;48626;51.678;5.806;2023-03-12T00:26:45;5.38;;;3.30;;
62572;SDS011;48626;51.678;5.806;2023-03-12T00:29:11;9.85;;;3.13;;
62572;SDS011;48626;51.678;5.806;2023-03-12T00:31:36;7.13;;;3.33;;
62572;SDS011;48626;51.678;5.806;2023-03-12T00:34:02;8.63;;;3.35;;
62572;SDS011;48626;51.678;5.806;2023-03-12T00:36:28;11.10;;;3.38;;
62572;SDS011;48626;51.678;5.806;2023-03-12T00:38:56;6.28;;;3.25;;
62572;SDS011;48626;51.678;5.806;2023-03-12T00:41:22;8.25;;;3.65;;
62572;SDS011;48626;51.678;5.806;2023-03-12T00:43:49;5.75;;;3.40;;
62572;SDS011;48626;51.678;5.806;2023-03-12T00:46:16;10.13;;;3.45;;
62572;SDS011;48626;51.678;5.806;2023-03-12T00:48:42;8.30;;;3.00;;
62572;SDS011;48626;51.678;5.806;2023-03-12T00:51:08;7.28;;;3.63;;
62572;SDS011;48626;51.678;5.806;2023-03-12T00:53:34;10.70;;;3.33;;
62572;SDS011;48626;51.678;5.806;2023-03-12T00:56:00;6.55;;;3.25;;
62572;SDS011;48626;51.678;5.806;2023-03-12T00:58:26;10.60;;;5.13;;
62572;SDS011;48626;51.678;5.806;2023-03-12T01:00:51;5.20;;;2.90;;
62572;SDS011;48626;51.678;5.806;2023-03-12T01:03:17;9.85;;;3.15;;
62572;SDS011;48626;51.678;5.806;2023-03-12T01:05:43;7.50;;;3.38;;
62572;SDS011;48626;51.678;5.806;2023-03-12T01:08:09;7.10;;;3.63;;
62572;SDS011;48626;51.678;5.806;2023-03-12T01:10:36;8.40;;;3.25;;
62572;SDS011;48626;51.678;5.806;2023-03-12T01:13:06;11.88;;;3.85;;
62572;SDS011;48626;51.678;5.806;2023-03-12T01:15:32;14.05;;;4.40;;
62572;SDS011;48626;51.678;5.806;2023-03-12T01:17:58;9.07;;;3.45;;
62572;SDS011;48626;51.678;5.806;2023-03-12T01:20:24;10.02;;;3.60;;
62572;SDS011;48626;51.678;5.806;2023-03-12T01:22:50;12.30;;;3.95;;
62572;SDS011;48626;51.678;5.806;2023-03-12T01:25:16;14.73;;;4.20;;
62572;SDS011;48626;51.678;5.806;2023-03-12T01:27:41;9.20;;;3.83;;
62572;SDS011;48626;51.678;5.806;2023-03-12T01:30:07;8.38;;;3.55;;
62572;SDS011;48626;51.678;5.806;2023-03-12T01:32:34;10.77;;;3.47;;
62572;SDS011;48626;51.678;5.806;2023-03-12T01:34:59;12.70;;;3.60;;
62572;SDS011;48626;51.678;5.806;2023-03-12T01:37:25;8.70;;;3.33;;
62572;SDS011;48626;51.678;5.806;2023-03-12T01:39:52;7.63;;;4.10;;
62572;SDS011;48626;51.678;5.806;2023-03-12T01:42:17;6.95;;;3.20;;
62572;SDS011;48626;51.678;5.806;2023-03-12T01:44:47;6.85;;;3.13;;
62572;SDS011;48626;51.678;5.806;2023-03-12T01:47:13;8.85;;;3.25;;
62572;SDS011;48626;51.678;5.806;2023-03-12T01:49:39;13.77;;;3.53;;
62572;SDS011;48626;51.678;5.806;2023-03-12T01:54:38;5.00;;;2.90;;
62572;SDS011;48626;51.678;5.806;2023-03-12T01:57:09;11.48;;;3.13;;
62572;SDS011;48626;51.678;5.806;2023-03-12T01:59:45;6.97;;;3.25;;
62572;SDS011;48626;51.678;5.806;2023-03-12T02:02:14;10.88;;;3.33;;
62572;SDS011;48626;51.678;5.806;2023-03-12T02:04:42;6.47;;;3.10;;
62572;SDS011;48626;51.678;5.806;2023-03-12T02:07:11;10.18;;;3.53;;
62572;SDS011;48626;51.678;5.806;2023-03-12T02:09:40;8.57;;;3.40;;
62572;SDS011;48626;51.678;5.806;2023-03-12T02:12:12;10.75;;;3.65;;
62572;SDS011;48626;51.678;5.806;2023-03-12T02:14:38;6.22;;;3.67;;
62572;SDS011;48626;51.678;5.806;2023-03-12T02:17:05;6.88;;;3.10;;
62572;SDS011;48626;51.678;5.806;2023-03-12T02:19:34;9.20;;;3.42;;
62572;SDS011;48626;51.678;5.806;2023-03-12T02:22:03;10.20;;;3.78;;
62572;SDS011;48626;51.678;5.806;2023-03-12T02:24:31;6.00;;;3.25;;
62572;SDS011;48626;51.678;5.806;2023-03-12T02:27:09;8.70;;;3.47;;
62572;SDS011;48626;51.678;5.806;2023-03-12T02:29:36;7.43;;;3.47;;
62572;SDS011;48626;51.678;5.806;2023-03-12T02:32:04;8.75;;;3.45;;
62572;SDS011;48626;51.678;5.806;2023-03-12T02:34:32;6.18;;;2.80;;
62572;SDS011;48626;51.678;5.806;2023-03-12T02:36:57;9.77;;;3.30;;
62572;SDS011;48626;51.678;5.806;2023-03-12T02:39:23;9.98;;;3.33;;
62572;SDS011;48626;51.678;5.806;2023-03-12T02:41:53;6.43;;;3.25;;
62572;SDS011;48626;51.678;5.806;2023-03-12T02:44:22;9.02;;;3.90;;
62572;SDS011;48626;51.678;5.806;2023-03-12T02:46:54;7.50;;;4.15;;
62572;SDS011;48626;51.678;5.806;2023-03-12T02:49:23;6.20;;;3.60;;
62572;SDS011;48626;51.678;5.806;2023-03-12T02:51:51;5.35;;;3.25;;
62572;SDS011;48626;51.678;5.806;2023-03-12T02:54:18;7.97;;;3.90;;
62572;SDS011;48626;51.678;5.806;2023-03-12T02:56:45;11.52;;;4.35;;
62572;SDS011;48626;51.678;5.806;2023-03-12T02:59:11;10.18;;;3.85;;
62572;SDS011;48626;51.678;5.806;2023-03-12T03:01:38;12.65;;;4.40;;
62572;SDS011;48626;51.678;5.806;2023-03-12T03:04:05;10.18;;;3.47;;
62572;SDS011;48626;51.678;5.806;2023-03-12T03:06:31;9.00;;;3.63;;
62572;SDS011;48626;51.678;5.806;2023-03-12T03:08:58;11.07;;;3.90;;
62572;SDS011;48626;51.678;5.806;2023-03-12T03:11:24;8.95;;;3.50;;
62572;SDS011;48626;51.678;5.806;2023-03-12T03:13:53;8.05;;;3.53;;
62572;SDS011;48626;51.678;5.806;2023-03-12T03:16:19;10.57;;;3.50;;
62572;SDS011;48626;51.678;5.806;2023-03-12T03:18:46;8.55;;;3.20;;
62572;SDS011;48626;51.678;5.806;2023-03-12T03:21:12;7.30;;;3.40;;
62572;SDS011;48626;51.678;5.806;2023-03-12T03:23:46;8.25;;;3.35;;
62572;SDS011;48626;51.678;5.806;2023-03-12T03:26:14;6.57;;;3.33;;
62572;SDS011;48626;51.678;5.806;2023-03-12T03:28:41;6.38;;;3.30;;
62572;SDS011;48626;51.678;5.806;2023-03-12T03:31:06;5.82;;;3.38;;
62572;SDS011;48626;51.678;5.806;2023-03-12T03:33:33;6.22;;;3.40;;
62572;SDS011;48626;51.678;5.806;2023-03-12T03:36:00;7.20;;;3.25;;
62572;SDS011;48626;51.678;5.806;2023-03-12T03:38:27;12.45;;;3.85;;
62572;SDS011;48626;51.678;5.806;2023-03-12T03:40:53;8.35;;;3.60;;
62572;SDS011;48626;51.678;5.806;2023-03-12T03:43:20;5.80;;;3.33;;
62572;SDS011;48626;51.678;5.806;2023-03-12T03:45:46;7.60;;;3.80;;
62572;SDS011;48626;51.678;5.806;2023-03-12T03:48:13;11.60;;;3.78;;
62572;SDS011;48626;51.678;5.806;2023-03-12T03:50:39;8.10;;;3.53;;
62572;SDS011;48626;51.678;5.806;2023-03-12T03:53:06;10.95;;;3.60;;
62572;SDS011;48626;51.678;5.806;2023-03-12T03:55:37;10.15;;;3.72;;
62572;SDS011;48626;51.678;5.806;2023-03-12T04:00:29;6.78;;;3.60;;
62572;SDS011;48626;51.678;5.806;2023-03-12T04:02:55;12.15;;;4.30;;
62572;SDS011;48626;51.678;5.806;2023-03-12T04:05:20;8.73;;;3.90;;
62572;SDS011;48626;51.678;5.806;2023-03-12T04:07:46;9.45;;;3.70;;
62572;SDS011;48626;51.678;5.806;2023-03-12T04:10:12;8.82;;;3.80;;
62572;SDS011;48626;51.678;5.806;2023-03-12T04:12:38;7.65;;;3.70;;
62572;SDS011;48626;51.678;5.806;2023-03-12T04:15:04;9.57;;;4.15;;
62572;SDS011;48626;51.678;5.806;2023-03-12T04:17:30;9.52;;;4.05;;
62572;SDS011;48626;51.678;5.806;2023-03-12T04:19:56;8.82;;;3.65;;
62572;SDS011;48626;51.678;5.806;2023-03-12T04:22:21;10.32;;;3.50;;
62572;SDS011;48626;51.678;5.806;2023-03-12T04:24:47;14.85;;;4.15;;
62572;SDS011;48626;51.678;5.806;2023-03-12T04:27:13;7.15;;;3.50;;
62572;SDS011;48626;51.678;5.806;2023-03-12T04:29:38;9.18;;;3.67;;
62572;SDS011;48626;51.678;5.806;2023-03-12T04:32:05;6.70;;;3.60;;
62572;SDS011;48626;51.678;5.806;2023-03-12T04:34:31;6.50;;;3.47;;
62572;SDS011;48626;51.678;5.806;2023-03-12T04:36:56;7.13;;;3.55;;
62572;SDS011;48626;51.678;5.806;2023-03-12T04:39:22;9.85;;;3.53;;
62572;SDS011;48626;51.678;5.806;2023-03-12T04:41:48;7.18;;;3.95;;
62572;SDS011;48626;51.678;5.806;2023-03-12T04:44:13;12.20;;;3.58;;
62572;SDS011;48626;51.678;5.806;2023-03-12T04:46:40;7.00;;;3.83;;
62572;SDS011;48626;51.678;5.806;2023-03-12T04:49:06;8.10;;;3.58;;
62572;SDS011;48626;51.678;5.806;2023-03-12T04:51:32;8.80;;;3.97;;
62572;SDS011;48626;51.678;5.806;2023-03-12T04:53:57;8.68;;;3.42;;
62572;SDS011;48626;51.678;5.806;2023-03-12T04:56:23;10.80;;;3.80;;
62572;SDS011;48626;51.678;5.806;2023-03-12T04:58:50;11.05;;;3.65;;
62572;SDS011;48626;51.678;5.806;2023-03-12T05:01:24;10.73;;;3.60;;
62572;SDS011;48626;51.678;5.806;2023-03-12T05:03:51;9.27;;;3.67;;
62572;SDS011;48626;51.678;5.806;2023-03-12T05:06:18;7.45;;;3.75;;
62572;SDS011;48626;51.678;5.806;2023-03-12T05:08:44;7.70;;;3.50;;
62572;SDS011;48626;51.678;5.806;2023-03-12T05:11:10;7.18;;;3.90;;
62572;SDS011;48626;51.678;5.806;2023-03-12T05:13:36;8.05;;;3.78;;
62572;SDS011;48626;51.678;5.806;2023-03-12T05:16:02;11.15;;;3.97;;
62572;SDS011;48626;51.678;5.806;2023-03-12T05:18:28;9.93;;;3.97;;
62572;SDS011;48626;51.678;5.806;2023-03-12T05:20:57;8.48;;;3.92;;
62572;SDS011;48626;51.678;5.806;2023-03-12T05:23:28;8.52;;;3.58;;
62572;SDS011;48626;51.678;5.806;2023-03-12T05:25:54;12.63;;;4.25;;
62572;SDS011;48626;51.678;5.806;2023-03-12T05:28:20;9.00;;;4.00;;
62572;SDS011;48626;51.678;5.806;2023-03-12T05:30:51;10.75;;;3.80;;
62572;SDS011;48626;51.678;5.806;2023-03-12T05:33:21;7.18;;;3.88;;
62572;SDS011;48626;51.678;5.806;2023-03-12T05:35:47;8.93;;;4.03;;
62572;SDS011;48626;51.678;5.806;2023-03-12T05:38:13;9.90;;;3.88;;
62572;SDS011;48626;51.678;5.806;2023-03-12T05:40:39;11.00;;;3.92;;
62572;SDS011;48626;51.678;5.806;2023-03-12T05:43:05;8.63;;;3.67;;
62572;SDS011;48626;51.678;5.806;2023-03-12T05:45:31;10.13;;;3.80;;
62572;SDS011;48626;51.678;5.806;2023-03-12T05:47:57;11.35;;;3.83;;
62572;SDS011;48626;51.678;5.806;2023-03-12T05:50:23;7.57;;;3.70;;
62572;SDS011;48626;51.678;5.806;2023-03-12T05:52:49;10.35;;;4.22;;
62572;SDS011;48626;51.678;5.806;2023-03-12T05:55:14;10.30;;;4.15;;
62572;SDS011;48626;51.678;5.806;2023-03-12T05:57:40;10.20;;;4.30;;
62572;SDS011;48626;51.678;5.806;2023-03-12T06:00:06;8.50;;;3.88;;
62572;SDS011;48626;51.678;5.806;2023-03-12T06:02:32;12.10;;;4.03;;
62572;SDS011;48626;51.678;5.806;2023-03-12T06:04:58;16.17;;;3.45;;
62572;SDS011;48626;51.678;5.806;2023-03-12T06:07:23;7.65;;;3.60;;
62572;SDS011;48626;51.678;5.806;2023-03-12T06:09:49;11.90;;;3.78;;
62572;SDS011;48626;51.678;5.806;2023-03-12T06:12:14;11.45;;;3.72;;
62572;SDS011;48626;51.678;5.806;2023-03-12T06:14:41;8.43;;;3.92;;
62572;SDS011;48626;51.678;5.806;2023-03-12T06:17:07;8.98;;;3.65;;
62572;SDS011;48626;51.678;5.806;2023-03-12T06:19:32;9.00;;;3.80;;
62572;SDS011;48626;51.678;5.806;2023-03-12T06:21:58;5.95;;;3.38;;
62572;SDS011;48626;51.678;5.806;2023-03-12T06:24:23;4.68;;;3.30;;
62572;SDS011;48626;51.678;5.806;2023-03-12T06:26:49;11.80;;;3.72;;
62572;SDS011;48626;51.678;5.806;2023-03-12T06:29:15;7.88;;;3.25;;
62572;SDS011;48626;51.678;5.806;2023-03-12T06:31:40;9.32;;;3.45;;
62572;SDS011;48626;51.678;5.806;2023-03-12T06:34:07;12.32;;;3.67;;
62572;SDS011;48626;51.678;5.806;2023-03-12T06:36:34;8.45;;;3.80;;
62572;SDS011;48626;51.678;5.806;2023-03-12T06:39:00;6.68;;;3.45;;
62572;SDS011;48626;51.678;5.806;2023-03-12T06:41:25;7.28;;;3.50;;
62572;SDS011;48626;51.678;5.806;2023-03-12T06:43:51;11.88;;;4.10;;
62572;SDS011;48626;51.678;5.806;2023-03-12T06:46:18;8.77;;;3.50;;
62572;SDS011;48626;51.678;5.806;2023-03-12T06:48:49;11.05;;;3.78;;
62572;SDS011;48626;51.678;5.806;2023-03-12T06:51:15;8.40;;;3.80;;
62572;SDS011;48626;51.678;5.806;2023-03-12T06:53:41;8.57;;;3.67;;
62572;SDS011;48626;51.678;5.806;2023-03-12T06:56:07;14.25;;;3.95;;
62572;SDS011;48626;51.678;5.806;2023-03-12T06:58:34;13.02;;;4.05;;
62572;SDS011;48626;51.678;5.806;2023-03-12T07:01:00;11.52;;;3.85;;
62572;SDS011;48626;51.678;5.806;2023-03-12T07:03:25;9.23;;;3.70;;
62572;SDS011;48626;51.678;5.806;2023-03-12T07:05:51;8.82;;;3.53;;
62572;SDS011;48626;51.678;5.806;2023-03-12T07:08:20;6.55;;;3.83;;
62572;SDS011;48626;51.678;5.806;2023-03-12T07:10:47;12.80;;;3.70;;
62572;SDS011;48626;51.678;5.806;2023-03-12T07:13:12;10.65;;;3.97;;
62572;SDS011;48626;51.678;5.806;2023-03-12T07:15:38;9.93;;;3.72;;
62572;SDS011;48626;51.678;5.806;2023-03-12T07:18:08;9.18;;;3.80;;
62572;SDS011;48626;51.678;5.806;2023-03-12T07:20:36;11.88;;;4.18;;
62572;SDS011;48626;51.678;5.806;2023-03-12T07:23:03;10.63;;;4.22;;
62572;SDS011;48626;51.678;5.806;2023-03-12T07:25:29;8.20;;;3.65;;
62572;SDS011;48626;51.678;5.806;2023-03-12T07:27:55;10.82;;;3.60;;
62572;SDS011;48626;51.678;5.806;2023-03-12T07:30:21;10.05;;;4.10;;
62572;SDS011;48626;51.678;5.806;2023-03-12T07:32:46;10.55;;;3.85;;
62572;SDS011;48626;51.678;5.806;2023-03-12T07:35:12;10.98;;;4.00;;
62572;SDS011;48626;51.678;5.806;2023-03-12T07:37:38;8.30;;;3.97;;
62572;SDS011;48626;51.678;5.806;2023-03-12T07:40:04;18.67;;;5.20;;
62572;SDS011;48626;51.678;5.806;2023-03-12T07:42:34;14.02;;;4.07;;
62572;SDS011;48626;51.678;5.806;2023-03-12T07:45:00;6.47;;;3.47;;
62572;SDS011;48626;51.678;5.806;2023-03-12T07:47:25;9.73;;;4.50;;
62572;SDS011;48626;51.678;5.806;2023-03-12T07:49:51;7.15;;;3.90;;
62572;SDS011;48626;51.678;5.806;2023-03-12T07:52:17;10.90;;;3.80;;
62572;SDS011;48626;51.678;5.806;2023-03-12T07:54:44;9.80;;;4.10;;
62572;SDS011;48626;51.678;5.806;2023-03-12T07:57:09;8.45;;;3.67;;
62572;SDS011;48626;51.678;5.806;2023-03-12T07:59:35;9.82;;;4.15;;
62572;SDS011;48626;51.678;5.806;2023-03-12T08:02:01;8.15;;;4.22;;
62572;SDS011;48626;51.678;5.806;2023-03-12T08:04:26;6.35;;;3.88;;
62572;SDS011;48626;51.678;5.806;2023-03-12T08:06:55;8.45;;;4.25;;
62572;SDS011;48626;51.678;5.806;2023-03-12T08:09:20;8.07;;;4.28;;
62572;SDS011;48626;51.678;5.806;2023-03-12T08:11:46;6.43;;;4.05;;
62572;SDS011;48626;51.678;5.806;2023-03-12T08:14:11;11.95;;;5.05;;
62572;SDS011;48626;51.678;5.806;2023-03-12T08:16:37;7.82;;;4.47;;
62572;SDS011;48626;51.678;5.806;2023-03-12T08:19:03;7.88;;;4.20;;
62572;SDS011;48626;51.678;5.806;2023-03-12T08:21:28;7.90;;;4.40;;
62572;SDS011;48626;51.678;5.806;2023-03-12T08:23:54;11.73;;;4.60;;
62572;SDS011;48626;51.678;5.806;2023-03-12T08:26:20;13.90;;;4.85;;
62572;SDS011;48626;51.678;5.806;2023-03-12T08:28:45;7.07;;;4.43;;
62572;SDS011;48626;51.678;5.806;2023-03-12T08:31:11;11.55;;;4.90;;
62572;SDS011;48626;51.678;5.806;2023-03-12T08:33:36;7.88;;;5.00;;
62572;SDS011;48626;51.678;5.806;2023-03-12T08:36:05;6.18;;;4.45;;
62572;SDS011;48626;51.678;5.806;2023-03-12T08:38:31;10.07;;;4.50;;
62572;SDS011;48626;51.678;5.806;2023-03-12T08:40:57;9.07;;;4.85;;
62572;SDS011;48626;51.678;5.806;2023-03-12T08:43:24;7.95;;;5.03;;
62572;SDS011;48626;51.678;5.806;2023-03-12T08:45:58;9.27;;;4.90;;
62572;SDS011;48626;51.678;5.806;2023-03-12T08:48:25;8.13;;;4.78;;
62572;SDS011;48626;51.678;5.806;2023-03-12T08:50:55;12.38;;;5.22;;
62572;SDS011;48626;51.678;5.806;2023-03-12T08:53:22;9.48;;;5.38;;
62572;SDS011;48626;51.678;5.806;2023-03-12T08:55:50;13.38;;;5.35;;
62572;SDS011;48626;51.678;5.806;2023-03-12T08:58:17;11.27;;;4.82;;
62572;SDS011;48626;51.678;5.806;2023-03-12T09:00:43;11.18;;;5.40;;
62572;SDS011;48626;51.678;5.806;2023-03-12T09:03:08;9.88;;;5.03;;
62572;SDS011;48626;51.678;5.806;2023-03-12T09:05:37;7.28;;;5.10;;
62572;SDS011;48626;51.678;5.806;2023-03-12T09:08:03;7.07;;;4.55;;
62572;SDS011;48626;51.678;5.806;2023-03-12T09:10:29;9.25;;;5.18;;
62572;SDS011;48626;51.678;5.806;2023-03-12T09:12:55;9.45;;;5.97;;
62572;SDS011;48626;51.678;5.806;2023-03-12T09:15:20;9.07;;;5.45;;
62572;SDS011;48626;51.678;5.806;2023-03-12T09:17:46;8.88;;;5.28;;
62572;SDS011;48626;51.678;5.806;2023-03-12T09:20:12;7.97;;;5.63;;
62572;SDS011;48626;51.678;5.806;2023-03-12T09:22:38;9.98;;;5.80;;
62572;SDS011;48626;51.678;5.806;2023-03-12T09:25:05;10.30;;;6.20;;
62572;SDS011;48626;51.678;5.806;2023-03-12T09:27:39;7.25;;;5.70;;
62572;SDS011;48626;51.678;5.806;2023-03-12T09:30:08;10.63;;;6.57;;
62572;SDS011;48626;51.678;5.806;2023-03-12T09:32:36;9.77;;;5.97;;
62572;SDS011;48626;51.678;5.806;2023-03-12T09:35:01;10.07;;;7.00;;
62572;SDS011;48626;51.678;5.806;2023-03-12T09:37:27;9.25;;;6.65;;
62572;SDS011;48626;51.678;5.806;2023-03-12T09:39:53;12.43;;;6.78;;
62572;SDS011;48626;51.678;5.806;2023-03-12T09:42:41;12.75;;;7.28;;
62572;SDS011;48626;51.678;5.806;2023-03-12T09:45:10;11.82;;;7.82;;
62572;SDS011;48626;51.678;5.806;2023-03-12T09:47:44;11.35;;;8.02;;
62572;SDS011;48626;51.678;5.806;2023-03-12T09:52:50;13.07;;;8.45;;
62572;SDS011;48626;51.678;5.806;2023-03-12T09:55:22;14.23;;;8.80;;
62572;SDS011;48626;51.678;5.806;2023-03-12T09:57:49;15.98;;;8.93;;
62572;SDS011;48626;51.678;5.806;2023-03-12T10:00:19;19.52;;;9.00;;
62572;SDS011;48626;51.678;5.806;2023-03-12T10:02:52;20.48;;;10.32;;
62572;SDS011;48626;51.678;5.806;2023-03-12T10:05:23;17.85;;;10.55;;
62572;SDS011;48626;51.678;5.806;2023-03-12T10:08:02;18.95;;;10.05;;
62572;SDS011;48626;51.678;5.806;2023-03-12T10:10:38;21.35;;;11.18;;
62572;SDS011;48626;51.678;5.806;2023-03-12T10:16:01;22.97;;;12.93;;
62572;SDS011;48626;51.678;5.806;2023-03-12T10:26:30;26.80;;;13.00;;
62572;SDS011;48626;51.678;5.806;2023-03-12T10:29:09;24.05;;;13.60;;
62572;SDS011;48626;51.678;5.806;2023-03-12T10:31:42;23.55;;;12.75;;
62572;SDS011;48626;51.678;5.806;2023-03-12T10:37:22;25.98;;;14.38;;
62572;SDS011;48626;51.678;5.806;2023-03-12T10:39:50;21.55;;;13.40;;
62572;SDS011;48626;51.678;5.806;2023-03-12T10:42:18;27.08;;;14.00;;
62572;SDS011;48626;51.678;5.806;2023-03-12T10:44:47;24.13;;;13.50;;
62572;SDS011;48626;51.678;5.806;2023-03-12T10:47:52;25.95;;;14.82;;
62572;SDS011;48626;51.678;5.806;2023-03-12T10:50:21;24.52;;;13.20;;
62572;SDS011;48626;51.678;5.806;2023-03-12T10:52:49;26.25;;;13.90;;
62572;SDS011;48626;51.678;5.806;2023-03-12T10:57:54;28.35;;;14.68;;
62572;SDS011;48626;51.678;5.806;2023-03-12T11:00:22;22.90;;;14.65;;
62572;SDS011;48626;51.678;5.806;2023-03-12T11:03:00;26.92;;;14.55;;
62572;SDS011;48626;51.678;5.806;2023-03-12T11:05:35;29.05;;;13.85;;
62572;SDS011;48626;51.678;5.806;2023-03-12T11:08:22;21.77;;;13.48;;
62572;SDS011;48626;51.678;5.806;2023-03-12T11:10:51;25.15;;;13.77;;
62572;SDS011;48626;51.678;5.806;2023-03-12T11:13:22;27.00;;;14.38;;
62572;SDS011;48626;51.678;5.806;2023-03-12T11:15:51;26.25;;;14.95;;
62572;SDS011;48626;51.678;5.806;2023-03-12T11:19:24;28.08;;;14.15;;
62572;SDS011;48626;51.678;5.806;2023-03-12T11:21:18;24.40;;;13.43;;
62572;SDS011;48626;51.678;5.806;2023-03-12T11:23:46;24.05;;;13.18;;
62572;SDS011;48626;51.678;5.806;2023-03-12T11:26:22;30.08;;;13.65;;
62572;SDS011;48626;51.678;5.806;2023-03-12T11:34:42;21.95;;;11.52;;
62572;SDS011;48626;51.678;5.806;2023-03-12T11:40:20;22.77;;;12.32;;
62572;SDS011;48626;51.678;5.806;2023-03-12T11:43:09;24.88;;;12.82;;
62572;SDS011;48626;51.678;5.806;2023-03-12T11:46:05;26.73;;;12.52;;
62572;SDS011;48626;51.678;5.806;2023-03-12T12:08:29;28.27;;;10.75;;
62572;SDS011;48626;51.678;5.806;2023-03-12T12:11:06;32.80;;;10.98;;
62572;SDS011;48626;51.678;5.806;2023-03-12T12:14:14;31.45;;;11.57;;
62572;SDS011;48626;51.678;5.806;2023-03-12T12:16:48;29.75;;;10.88;;
62572;SDS011;48626;51.678;5.806;2023-03-12T12:19:38;37.65;;;11.68;;
62572;SDS011;48626;51.678;5.806;2023-03-12T12:33:35;35.90;;;12.57;;
62572;SDS011;48626;51.678;5.806;2023-03-12T12:36:07;39.72;;;12.13;;
62572;SDS011;48626;51.678;5.806;2023-03-12T12:38:35;42.92;;;11.73;;
62572;SDS011;48626;51.678;5.806;2023-03-12T12:41:24;42.13;;;11.45;;
62572;SDS011;48626;51.678;5.806;2023-03-12T12:44:08;38.15;;;9.73;;
62572;SDS011;48626;51.678;5.806;2023-03-12T12:46:40;40.63;;;10.23;;
62572;SDS011;48626;51.678;5.806;2023-03-12T12:49:32;36.30;;;9.32;;
62572;SDS011;48626;51.678;5.806;2023-03-12T12:52:06;39.17;;;9.50;;
62572;SDS011;48626;51.678;5.806;2023-03-12T12:57:03;37.85;;;9.07;;
62572;SDS011;48626;51.678;5.806;2023-03-12T13:02:42;30.83;;;7.65;;
62572;SDS011;48626;51.678;5.806;2023-03-12T13:07:51;42.88;;;16.20;;
62572;SDS011;48626;51.678;5.806;2023-03-12T13:12:57;38.97;;;9.32;;
62572;SDS011;48626;51.678;5.806;2023-03-12T13:15:37;34.85;;;8.07;;
62572;SDS011;48626;51.678;5.806;2023-03-12T13:26:05;43.00;;;8.70;;
62572;SDS011;48626;51.678;5.806;2023-03-12T13:33:59;27.95;;;7.55;;
62572;SDS011;48626;51.678;5.806;2023-03-12T13:39:35;30.08;;;6.53;;
62572;SDS011;48626;51.678;5.806;2023-03-12T13:42:25;33.60;;;6.45;;
62572;SDS011;48626;51.678;5.806;2023-03-12T13:44:47;27.67;;;6.35;;
62572;SDS011;48626;51.678;5.806;2023-03-12T13:47:26;32.42;;;5.93;;
62572;SDS011;48626;51.678;5.806;2023-03-12T13:49:58;29.38;;;5.97;;
62572;SDS011;48626;51.678;5.806;2023-03-12T13:52:46;30.33;;;5.70;;
62572;SDS011;48626;51.678;5.806;2023-03-12T13:57:39;22.92;;;4.97;;
62572;SDS011;48626;51.678;5.806;2023-03-12T14:00:16;28.88;;;6.18;;
62572;SDS011;48626;51.678;5.806;2023-03-12T14:03:17;29.75;;;5.22;;
62572;SDS011;48626;51.678;5.806;2023-03-12T14:09:04;27.17;;;5.07;;
62572;SDS011;48626;51.678;5.806;2023-03-12T14:11:23;33.45;;;4.68;;
62572;SDS011;48626;51.678;5.806;2023-03-12T14:16:48;37.05;;;5.88;;
62572;SDS011;48626;51.678;5.806;2023-03-12T14:19:17;30.00;;;5.10;;
62572;SDS011;48626;51.678;5.806;2023-03-12T14:21:47;35.53;;;5.88;;
62572;SDS011;48626;51.678;5.806;2023-03-12T14:26:52;35.70;;;8.85;;
62572;SDS011;48626;51.678;5.806;2023-03-12T14:29:21;40.70;;;11.05;;
62572;SDS011;48626;51.678;5.806;2023-03-12T14:31:54;28.33;;;7.50;;
62572;SDS011;48626;51.678;5.806;2023-03-12T14:34:23;28.65;;;5.88;;
62572;SDS011;48626;51.678;5.806;2023-03-12T14:39:41;33.95;;;6.65;;
62572;SDS011;48626;51.678;5.806;2023-03-12T14:42:13;34.28;;;5.60;;
62572;SDS011;48626;51.678;5.806;2023-03-12T14:44:52;50.03;;;14.82;;
62572;SDS011;48626;51.678;5.806;2023-03-12T14:47:21;34.22;;;7.22;;
62572;SDS011;48626;51.678;5.806;2023-03-12T14:49:47;31.45;;;7.93;;
62572;SDS011;48626;51.678;5.806;2023-03-12T14:52:26;35.63;;;7.22;;
62572;SDS011;48626;51.678;5.806;2023-03-12T14:54:59;31.88;;;7.10;;
62572;SDS011;48626;51.678;5.806;2023-03-12T14:57:26;32.05;;;12.38;;
62572;SDS011;48626;51.678;5.806;2023-03-12T14:59:53;54.90;;;15.18;;
62572;SDS011;48626;51.678;5.806;2023-03-12T15:02:21;53.50;;;19.38;;
62572;SDS011;48626;51.678;5.806;2023-03-12T15:04:47;30.55;;;8.32;;
62572;SDS011;48626;51.678;5.806;2023-03-12T15:07:16;36.78;;;8.23;;
62572;SDS011;48626;51.678;5.806;2023-03-12T15:09:46;31.67;;;8.48;;
62572;SDS011;48626;51.678;5.806;2023-03-12T15:12:22;24.40;;;6.18;;
62572;SDS011;48626;51.678;5.806;2023-03-12T15:15:06;37.97;;;6.03;;
62572;SDS011;48626;51.678;5.806;2023-03-12T15:17:34;25.30;;;5.72;;
62572;SDS011;48626;51.678;5.806;2023-03-12T15:20:02;37.78;;;6.95;;
62572;SDS011;48626;51.678;5.806;2023-03-12T15:22:33;29.85;;;5.93;;
62572;SDS011;48626;51.678;5.806;2023-03-12T15:25:13;25.75;;;5.72;;
62572;SDS011;48626;51.678;5.806;2023-03-12T15:28:00;27.48;;;6.15;;
62572;SDS011;48626;51.678;5.806;2023-03-12T15:31:03;29.67;;;5.82;;
62572;SDS011;48626;51.678;5.806;2023-03-12T15:33:29;26.88;;;5.70;;
62572;SDS011;48626;51.678;5.806;2023-03-12T15:36:05;27.52;;;6.30;;
62572;SDS011;48626;51.678;5.806;2023-03-12T15:38:44;35.72;;;6.32;;
62572;SDS011;48626;51.678;5.806;2023-03-12T15:41:19;28.85;;;6.28;;
62572;SDS011;48626;51.678;5.806;2023-03-12T15:43:50;28.80;;;5.93;;
62572;SDS011;48626;51.678;5.806;2023-03-12T15:46:18;34.25;;;6.03;;
62572;SDS011;48626;51.678;5.806;2023-03-12T15:48:46;34.30;;;6.63;;
62572;SDS011;48626;51.678;5.806;2023-03-12T15:53:59;27.67;;;5.53;;
62572;SDS011;48626;51.678;5.806;2023-03-12T15:56:26;32.25;;;6.18;;
62572;SDS011;48626;51.678;5.806;2023-03-12T15:59:01;33.28;;;6.38;;
62572;SDS011;48626;51.678;5.806;2023-03-12T16:01:29;29.08;;;5.75;;
62572;SDS011;48626;51.678;5.806;2023-03-12T16:04:18;37.00;;;6.63;;
62572;SDS011;48626;51.678;5.806;2023-03-12T16:06:45;32.03;;;6.85;;
62572;SDS011;48626;51.678;5.806;2023-03-12T16:09:22;27.50;;;5.65;;
62572;SDS011;48626;51.678;5.806;2023-03-12T16:11:50;33.88;;;6.15;;
62572;SDS011;48626;51.678;5.806;2023-03-12T16:14:18;25.05;;;5.35;;
62572;SDS011;48626;51.678;5.806;2023-03-12T16:16:46;30.38;;;6.15;;
62572;SDS011;48626;51.678;5.806;2023-03-12T16:19:13;31.58;;;5.43;;
62572;SDS011;48626;51.678;5.806;2023-03-12T16:21:40;30.52;;;5.57;;
62572;SDS011;48626;51.678;5.806;2023-03-12T16:24:06;32.63;;;5.68;;
62572;SDS011;48626;51.678;5.806;2023-03-12T16:26:37;35.25;;;6.30;;
62572;SDS011;48626;51.678;5.806;2023-03-12T16:29:11;35.15;;;5.50;;
62572;SDS011;48626;51.678;5.806;2023-03-12T16:31:39;31.90;;;5.85;;
62572;SDS011;48626;51.678;5.806;2023-03-12T16:34:05;34.05;;;5.78;;
62572;SDS011;48626;51.678;5.806;2023-03-12T16:36:33;29.10;;;5.85;;